Time,TemperatureF,DewpointF,PressureIn,WindDirection,WindDirectionDegrees,WindSpeedMPH,WindSpeedGustMPH,Humidity,HourlyPrecipIn,Conditions,Clouds,dailyrainin,SoftwareType,DateUTC
2013-07-03 00:10:00,49.3,45.3,30.06,SW,225,0.0,0.0,86,0.00,,,0.00,Weather View 32 v70,2013-07-03 08:10:00,
2013-07-03 00:15:00,49.1,45.4,30.06,SW,225,0.0,0.0,87,0.00,,,0.00,Weather View 32 v70,2013-07-03 08:15:00,
2013-07-03 00:25:00,48.9,45.2,30.07,SW,225,0.0,0.0,87,0.00,,,0.00,Weather View 32 v70,2013-07-03 08:25:00,
2013-07-03 00:35:00,48.7,45.0,30.07,SW,225,0.0,0.0,87,0.00,,,0.00,Weather View 32 v70,2013-07-03 08:35:00,
2013-07-03 00:45:00,48.6,44.9,30.08,SW,225,0.0,0.0,87,0.00,,,0.00,Weather View 32 v70,2013-07-03 08:45:00,
2013-07-03 00:53:00,48.6,44.9,30.08,SW,225,0.0,0.0,87,0.00,,,0.00,Weather View 32 v70,2013-07-03 08:53:00,
2013-07-03 00:55:00,48.4,44.7,30.08,SW,225,0.0,0.0,87,0.00,,,0.00,Weather View 32 v70,2013-07-03 08:55:00,
2013-07-03 01:05:00,48.2,44.5,30.08,SW,225,0.0,0.0,87,0.00,,,0.00,Weather View 32 v70,2013-07-03 09:05:00,
2013-07-03 01:10:00,48.2,44.8,30.08,SW,225,0.0,0.0,88,0.00,,,0.00,Weather View 32 v70,2013-07-03 09:10:00,
2013-07-03 01:15:00,48.4,45.0,30.08,SW,225,0.0,0.0,88,0.00,,,0.00,Weather View 32 v70,2013-07-03 09:15:00,
2013-07-03 01:20:00,48.2,44.8,30.08,SW,225,0.0,0.0,88,0.00,,,0.00,Weather View 32 v70,2013-07-03 09:20:00,
2013-07-03 01:30:00,48.0,44.6,30.09,SW,225,0.0,0.0,88,0.00,,,0.00,Weather View 32 v70,2013-07-03 09:30:00,
2013-07-03 01:40:00,47.8,44.7,30.09,SW,225,0.0,0.0,89,0.00,,,0.00,Weather View 32 v70,2013-07-03 09:40:00,
2013-07-03 01:50:00,47.8,44.7,30.09,SE,135,0.0,0.0,89,0.00,,,0.00,Weather View 32 v70,2013-07-03 09:50:00,
2013-07-03 01:54:00,47.8,44.7,30.09,SE,135,0.0,0.0,89,0.00,,,0.00,Weather View 32 v70,2013-07-03 09:54:00,
2013-07-03 02:00:00,47.7,44.6,30.09,SE,135,0.0,0.0,89,0.00,,,0.00,Weather View 32 v70,2013-07-03 10:00:00,
2013-07-03 02:05:00,47.7,44.6,30.10,SE,135,0.0,0.0,89,0.00,,,0.00,Weather View 32 v70,2013-07-03 10:05:00,
2013-07-03 02:15:00,47.7,44.6,30.10,SE,135,0.0,0.0,89,0.00,,,0.00,Weather View 32 v70,2013-07-03 10:15:00,
2013-07-03 02:20:00,47.5,44.4,30.10,SSE,158,0.0,0.0,89,0.00,,,0.00,Weather View 32 v70,2013-07-03 10:20:00,
2013-07-03 02:25:00,47.5,44.4,30.11,WSW,248,0.0,0.0,89,0.00,,,0.00,Weather View 32 v70,2013-07-03 10:25:00,
2013-07-03 02:30:00,47.3,44.2,30.11,WSW,248,0.0,0.0,89,0.00,,,0.00,Weather View 32 v70,2013-07-03 10:30:00,
2013-07-03 02:40:00,47.1,44.0,30.11,WSW,248,0.0,0.0,89,0.00,,,0.00,Weather View 32 v70,2013-07-03 10:40:00,
2013-07-03 02:45:00,47.1,44.0,30.10,WSW,248,0.0,0.0,89,0.00,,,0.00,Weather View 32 v70,2013-07-03 10:45:00,
2013-07-03 02:51:00,47.1,44.0,30.10,WSW,248,0.0,0.0,89,0.00,,,0.00,Weather View 32 v70,2013-07-03 10:51:00,
2013-07-03 02:56:00,46.9,43.9,30.10,WSW,248,0.0,0.0,89,0.00,,,0.00,Weather View 32 v70,2013-07-03 10:56:00,
2013-07-03 03:00:00,46.9,43.9,30.10,WSW,248,0.0,0.0,89,0.00,,,0.00,Weather View 32 v70,2013-07-03 11:00:00,
2013-07-03 03:11:00,46.8,43.7,30.11,WSW,248,0.0,0.0,89,0.00,,,0.00,Weather View 32 v70,2013-07-03 11:11:00,
2013-07-03 03:20:00,46.8,44.0,30.11,WSW,248,0.0,0.0,90,0.00,,,0.00,Weather View 32 v70,2013-07-03 11:20:00,
2013-07-03 03:25:00,46.9,43.9,30.11,WSW,248,0.0,0.0,89,0.00,,,0.00,Weather View 32 v70,2013-07-03 11:25:00,
2013-07-03 03:31:00,46.9,44.2,30.11,SE,135,0.0,0.0,90,0.00,,,0.00,Weather View 32 v70,2013-07-03 11:31:00,
2013-07-03 03:36:00,46.9,44.2,30.11,South,180,0.0,0.0,90,0.00,,,0.00,Weather View 32 v70,2013-07-03 11:36:00,
2013-07-03 03:45:00,46.6,43.8,30.12,SW,225,0.0,0.0,90,0.00,,,0.00,Weather View 32 v70,2013-07-03 11:45:00,
2013-07-03 03:51:00,46.6,43.8,30.12,SW,225,0.0,0.0,90,0.00,,,0.00,Weather View 32 v70,2013-07-03 11:51:00,
2013-07-03 03:56:00,46.6,43.8,30.12,SW,225,0.0,0.0,90,0.00,,,0.00,Weather View 32 v70,2013-07-03 11:56:00,
2013-07-03 04:01:00,46.6,43.8,30.12,SW,225,0.0,0.0,90,0.00,,,0.00,Weather View 32 v70,2013-07-03 12:01:00,
2013-07-03 04:10:00,46.4,43.6,30.11,SW,225,0.0,0.0,90,0.00,,,0.00,Weather View 32 v70,2013-07-03 12:10:00,
2013-07-03 04:16:00,46.4,43.6,30.11,SW,225,0.0,0.0,90,0.00,,,0.00,Weather View 32 v70,2013-07-03 12:16:00,
2013-07-03 04:25:00,46.4,43.6,30.11,SW,225,0.0,0.0,90,0.00,,,0.00,Weather View 32 v70,2013-07-03 12:25:00,
2013-07-03 04:30:00,46.2,43.4,30.11,SW,225,0.0,0.0,90,0.00,,,0.00,Weather View 32 v70,2013-07-03 12:30:00,
2013-07-03 04:36:00,46.2,43.4,30.11,ESE,112,0.0,0.0,90,0.00,,,0.00,Weather View 32 v70,2013-07-03 12:36:00,
2013-07-03 04:41:00,46.2,43.4,30.11,SE,135,0.0,0.0,90,0.00,,,0.00,Weather View 32 v70,2013-07-03 12:41:00,
2013-07-03 04:46:00,46.4,43.6,30.12,SE,135,0.0,0.0,90,0.00,,,0.00,Weather View 32 v70,2013-07-03 12:46:00,
2013-07-03 04:55:00,46.2,43.4,30.12,SE,135,0.0,0.0,90,0.00,,,0.00,Weather View 32 v70,2013-07-03 12:55:00,
2013-07-03 05:00:00,46.4,43.6,30.12,SE,135,0.0,0.0,90,0.00,,,0.00,Weather View 32 v70,2013-07-03 13:00:00,
2013-07-03 05:11:00,46.6,43.8,30.12,SE,135,0.0,0.0,90,0.00,,,0.00,Weather View 32 v70,2013-07-03 13:11:00,
2013-07-03 05:16:00,46.4,43.6,30.12,SE,135,0.0,0.0,90,0.00,,,0.00,Weather View 32 v70,2013-07-03 13:16:00,
2013-07-03 05:26:00,46.6,43.8,30.15,SE,135,0.0,0.0,90,0.00,,,0.00,Weather View 32 v70,2013-07-03 13:26:00,
2013-07-03 05:35:00,46.6,43.8,30.15,SE,135,0.0,0.0,90,0.00,,,0.00,Weather View 32 v70,2013-07-03 13:35:00,
2013-07-03 05:46:00,46.6,43.8,30.16,SE,135,0.0,0.0,90,0.00,,,0.00,Weather View 32 v70,2013-07-03 13:46:00,
2013-07-03 05:51:00,46.4,43.6,30.16,WSW,248,0.0,0.0,90,0.00,,,0.00,Weather View 32 v70,2013-07-03 13:51:00,
2013-07-03 05:56:00,46.6,43.8,30.16,West,270,0.0,0.0,90,0.00,,,0.00,Weather View 32 v70,2013-07-03 13:56:00,
2013-07-03 06:01:00,46.8,44.0,30.16,NW,315,0.0,0.0,90,0.00,,,0.00,Weather View 32 v70,2013-07-03 14:01:00,
2013-07-03 06:11:00,46.9,44.2,30.16,SW,225,0.0,0.0,90,0.00,,,0.00,Weather View 32 v70,2013-07-03 14:11:00,
2013-07-03 06:21:00,47.3,44.8,30.16,SE,135,0.0,0.0,91,0.00,,,0.00,Weather View 32 v70,2013-07-03 14:21:00,
2013-07-03 06:26:00,47.1,44.3,30.16,ESE,112,0.0,0.0,90,0.00,,,0.00,Weather View 32 v70,2013-07-03 14:26:00,
2013-07-03 06:31:00,47.3,44.5,30.16,ESE,112,0.0,0.0,90,0.00,,,0.00,Weather View 32 v70,2013-07-03 14:31:00,
2013-07-03 06:41:00,47.1,44.3,30.16,ESE,112,0.0,0.0,90,0.00,,,0.00,Weather View 32 v70,2013-07-03 14:41:00,
2013-07-03 06:46:00,47.1,44.3,30.16,ESE,112,0.0,0.0,90,0.00,,,0.00,Weather View 32 v70,2013-07-03 14:46:00,
2013-07-03 06:51:00,47.1,44.3,30.16,SE,135,0.0,0.0,90,0.00,,,0.00,Weather View 32 v70,2013-07-03 14:51:00,
2013-07-03 06:56:00,47.5,44.7,30.16,NNE,22,0.0,0.0,90,0.00,,,0.00,Weather View 32 v70,2013-07-03 14:56:00,
2013-07-03 06:57:00,47.5,44.7,30.16,NNE,22,0.0,0.0,90,0.00,,,0.00,Weather View 32 v70,2013-07-03 14:57:00,
2013-07-03 07:11:00,47.7,44.9,30.16,East,90,0.0,0.0,90,0.00,,,0.00,Weather View 32 v70,2013-07-03 15:11:00,
2013-07-03 07:16:00,47.5,44.7,30.16,East,90,0.0,0.0,90,0.00,,,0.00,Weather View 32 v70,2013-07-03 15:16:00,
2013-07-03 07:21:00,47.7,44.9,30.16,East,90,0.0,0.0,90,0.00,,,0.00,Weather View 32 v70,2013-07-03 15:21:00,
2013-07-03 07:26:00,47.8,45.0,30.16,East,90,0.0,0.0,90,0.00,,,0.00,Weather View 32 v70,2013-07-03 15:26:00,
2013-07-03 07:36:00,47.8,45.0,30.16,ESE,112,0.0,0.0,90,0.00,,,0.00,Weather View 32 v70,2013-07-03 15:36:00,
2013-07-03 07:41:00,47.8,45.0,30.16,West,270,0.0,0.0,90,0.00,,,0.00,Weather View 32 v70,2013-07-03 15:41:00,
2013-07-03 07:56:00,48.2,45.4,30.16,SW,225,0.0,0.0,90,0.00,,,0.00,Weather View 32 v70,2013-07-03 15:56:00,
2013-07-03 08:01:00,48.4,45.6,30.16,SW,225,0.0,0.0,90,0.00,,,0.00,Weather View 32 v70,2013-07-03 16:01:00,
2013-07-03 08:06:00,48.4,45.6,30.17,ENE,68,0.0,0.0,90,0.00,,,0.00,Weather View 32 v70,2013-07-03 16:06:00,
2013-07-03 08:16:00,48.6,45.8,30.17,WSW,248,0.0,0.0,90,0.00,,,0.00,Weather View 32 v70,2013-07-03 16:16:00,
2013-07-03 08:26:00,48.7,45.9,30.17,South,180,0.0,0.0,90,0.00,,,0.00,Weather View 32 v70,2013-07-03 16:26:00,
2013-07-03 08:31:00,48.9,46.1,30.17,SW,225,0.0,0.0,90,0.00,,,0.00,Weather View 32 v70,2013-07-03 16:31:00,
2013-07-03 08:36:00,48.9,46.1,30.17,South,180,0.0,0.0,90,0.00,,,0.00,Weather View 32 v70,2013-07-03 16:36:00,
2013-07-03 08:46:00,49.3,46.5,30.17,South,180,0.0,0.0,90,0.00,,,0.00,Weather View 32 v70,2013-07-03 16:46:00,
2013-07-03 08:51:00,49.3,46.5,30.17,South,180,0.0,0.0,90,0.00,,,0.00,Weather View 32 v70,2013-07-03 16:51:00,
2013-07-03 09:01:00,49.8,47.0,30.17,South,180,0.0,0.0,90,0.00,,,0.00,Weather View 32 v70,2013-07-03 17:01:00,
2013-07-03 09:06:00,49.6,46.8,30.18,South,180,0.0,0.0,90,0.00,,,0.00,Weather View 32 v70,2013-07-03 17:06:00,
2013-07-03 09:16:00,50.5,47.4,30.18,NNE,22,0.0,0.0,89,0.00,,,0.00,Weather View 32 v70,2013-07-03 17:16:00,
2013-07-03 09:21:00,50.5,47.1,30.18,NNE,22,0.0,0.0,88,0.00,,,0.00,Weather View 32 v70,2013-07-03 17:21:00,
2013-07-03 09:26:00,50.9,47.8,30.18,NNE,22,0.0,0.0,89,0.00,,,0.00,Weather View 32 v70,2013-07-03 17:26:00,
2013-07-03 09:36:00,52.0,48.2,30.18,NW,315,0.0,0.0,87,0.00,,,0.00,Weather View 32 v70,2013-07-03 17:36:00,
2013-07-03 09:41:00,52.2,48.1,30.18,West,270,1.0,1.0,86,0.00,,,0.00,Weather View 32 v70,2013-07-03 17:41:00,
2013-07-03 09:46:00,52.3,48.3,30.19,WNW,292,1.0,1.0,86,0.00,,,0.00,Weather View 32 v70,2013-07-03 17:46:00,
2013-07-03 09:58:00,53.1,48.7,30.19,NNE,22,0.0,1.0,85,0.00,,,0.00,Weather View 32 v70,2013-07-03 17:58:00,
2013-07-03 10:06:00,53.4,48.4,30.19,West,270,1.0,1.0,83,0.00,,,0.00,Weather View 32 v70,2013-07-03 18:06:00,
2013-07-03 10:11:00,53.8,49.0,30.19,WNW,292,1.0,1.0,84,0.00,,,0.00,Weather View 32 v70,2013-07-03 18:11:00,
2013-07-03 10:21:00,54.3,48.9,30.19,NW,315,1.0,1.0,82,0.00,,,0.00,Weather View 32 v70,2013-07-03 18:21:00,
2013-07-03 10:26:00,54.5,48.8,30.20,NW,315,2.0,2.0,81,0.00,,,0.00,Weather View 32 v70,2013-07-03 18:26:00,
2013-07-03 10:36:00,54.9,48.8,30.20,NW,315,1.0,2.0,80,0.00,,,0.00,Weather View 32 v70,2013-07-03 18:36:00,
2013-07-03 10:41:00,55.0,49.0,30.20,WNW,292,1.0,2.0,80,0.00,,,0.00,Weather View 32 v70,2013-07-03 18:41:00,
2013-07-03 10:51:00,55.0,48.6,30.20,North,0,0.0,2.0,79,0.00,,,0.00,Weather View 32 v70,2013-07-03 18:51:00,
2013-07-03 10:56:00,55.2,48.5,30.20,West,270,0.0,2.0,78,0.00,,,0.00,Weather View 32 v70,2013-07-03 18:56:00,
2013-07-03 11:01:00,55.2,48.5,30.20,NW,315,0.0,2.0,78,0.00,,,0.00,Weather View 32 v70,2013-07-03 19:01:00,
2013-07-03 11:11:00,55.6,48.8,30.20,West,270,1.0,2.0,78,0.00,,,0.00,Weather View 32 v70,2013-07-03 19:11:00,
2013-07-03 11:16:00,55.6,48.8,30.20,West,270,1.0,2.0,78,0.00,,,0.00,Weather View 32 v70,2013-07-03 19:16:00,
2013-07-03 11:26:00,55.9,48.8,30.21,WNW,292,1.0,2.0,77,0.00,,,0.00,Weather View 32 v70,2013-07-03 19:26:00,
2013-07-03 11:31:00,55.9,48.8,30.21,NW,315,1.0,2.0,77,0.00,,,0.00,Weather View 32 v70,2013-07-03 19:31:00,
2013-07-03 11:36:00,56.3,48.8,30.21,WNW,292,1.0,2.0,76,0.00,,,0.00,Weather View 32 v70,2013-07-03 19:36:00,
2013-07-03 11:46:00,57.9,49.3,30.21,West,270,1.0,1.0,73,0.00,,,0.00,Weather View 32 v70,2013-07-03 19:46:00,
2013-07-03 12:00:00,59.4,49.2,30.21,NE,45,2.0,2.0,69,0.00,,,0.00,Weather View 32 v70,2013-07-03 20:00:00,
2013-07-03 12:06:00,59.5,49.7,30.20,NW,315,2.0,2.0,70,0.00,,,0.00,Weather View 32 v70,2013-07-03 20:06:00,
2013-07-03 12:11:00,59.5,49.7,30.20,NW,315,2.0,2.0,70,0.00,,,0.00,Weather View 32 v70,2013-07-03 20:11:00,
2013-07-03 12:20:00,61.9,49.1,30.20,NNW,338,2.0,2.0,63,0.00,,,0.00,Weather View 32 v70,2013-07-03 20:20:00,
2013-07-03 12:35:00,63.5,49.8,30.20,West,270,2.0,2.0,61,0.00,,,0.00,Weather View 32 v70,2013-07-03 20:35:00,
2013-07-03 12:40:00,63.9,50.1,30.20,WSW,248,2.0,2.0,61,0.00,,,0.00,Weather View 32 v70,2013-07-03 20:40:00,
2013-07-03 12:45:00,64.4,49.7,30.20,East,90,2.0,2.0,59,0.00,,,0.00,Weather View 32 v70,2013-07-03 20:45:00,
2013-07-03 12:55:00,65.8,49.2,30.20,West,270,2.0,2.0,55,0.00,,,0.00,Weather View 32 v70,2013-07-03 20:55:00,
2013-07-03 13:00:00,65.7,49.5,30.20,NE,45,2.0,3.0,56,0.00,,,0.00,Weather View 32 v70,2013-07-03 21:00:00,
2013-07-03 13:15:00,70.3,51.3,30.20,NNW,338,1.0,3.0,51,0.00,,,0.00,Weather View 32 v70,2013-07-03 21:15:00,
2013-07-03 13:25:00,73.4,48.2,30.20,NNW,338,2.0,3.0,41,0.00,,,0.00,Weather View 32 v70,2013-07-03 21:25:00,
2013-07-03 13:30:00,70.3,47.9,30.20,SSE,158,2.0,3.0,45,0.00,,,0.00,Weather View 32 v70,2013-07-03 21:30:00,
2013-07-03 13:35:00,70.9,49.6,30.20,SW,225,2.0,3.0,47,0.00,,,0.00,Weather View 32 v70,2013-07-03 21:35:00,
2013-07-03 13:45:00,68.0,48.1,30.20,West,270,3.0,3.0,49,0.00,,,0.00,Weather View 32 v70,2013-07-03 21:45:00,
2013-07-03 13:50:00,66.0,47.8,30.20,NW,315,3.0,3.0,52,0.00,,,0.00,Weather View 32 v70,2013-07-03 21:50:00,
2013-07-03 14:00:00,64.2,48.2,30.20,West,270,4.0,4.0,56,0.00,,,0.00,Weather View 32 v70,2013-07-03 22:00:00,
2013-07-03 14:10:00,63.5,48.0,30.22,West,270,3.0,4.0,57,0.00,,,0.00,Weather View 32 v70,2013-07-03 22:10:00,
2013-07-03 14:20:00,62.6,48.0,30.22,WNW,292,3.0,4.0,59,0.00,,,0.00,Weather View 32 v70,2013-07-03 22:20:00,
2013-07-03 14:25:00,62.1,48.4,30.22,West,270,2.0,4.0,61,0.00,,,0.00,Weather View 32 v70,2013-07-03 22:25:00,
2013-07-03 14:35:00,60.4,48.2,30.22,SW,225,3.0,4.0,64,0.00,,,0.00,Weather View 32 v70,2013-07-03 22:35:00,
2013-07-03 14:40:00,59.7,47.9,30.22,SW,225,3.0,4.0,65,0.00,,,0.00,Weather View 32 v70,2013-07-03 22:40:00,
2013-07-03 14:45:00,59.5,48.1,30.23,WSW,248,2.0,4.0,66,0.00,,,0.00,Weather View 32 v70,2013-07-03 22:45:00,
2013-07-03 14:55:00,59.0,48.4,30.23,SW,225,2.0,4.0,68,0.00,,,0.00,Weather View 32 v70,2013-07-03 22:55:00,
2013-07-03 15:00:00,59.0,48.0,30.23,West,270,2.0,4.0,67,0.00,,,0.00,Weather View 32 v70,2013-07-03 23:00:00,
2013-07-03 15:20:00,58.8,47.9,30.22,WSW,248,2.0,3.0,67,0.00,,,0.00,Weather View 32 v70,2013-07-03 23:20:00,
2013-07-03 15:35:00,58.5,47.1,30.23,WNW,292,2.0,3.0,66,0.00,,,0.00,Weather View 32 v70,2013-07-03 23:35:00,
2013-07-03 15:40:00,58.8,47.5,30.23,WSW,248,2.0,3.0,66,0.00,,,0.00,Weather View 32 v70,2013-07-03 23:40:00,
2013-07-03 15:55:00,59.5,48.1,30.23,West,270,2.0,3.0,66,0.00,,,0.00,Weather View 32 v70,2013-07-03 23:55:00,
2013-07-03 16:01:00,59.4,47.2,30.23,WNW,292,2.0,3.0,64,0.00,,,0.00,Weather View 32 v70,2013-07-04 00:01:00,
2013-07-03 16:10:00,59.5,47.7,30.22,West,270,3.0,3.0,65,0.00,,,0.00,Weather View 32 v70,2013-07-04 00:10:00,
2013-07-03 16:15:00,59.5,46.9,30.22,NNW,338,2.0,3.0,63,0.00,,,0.00,Weather View 32 v70,2013-07-04 00:15:00,
2013-07-03 16:20:00,59.5,47.3,30.22,WSW,248,2.0,3.0,64,0.00,,,0.00,Weather View 32 v70,2013-07-04 00:20:00,
2013-07-03 16:30:00,59.5,46.9,30.23,NW,315,3.0,3.0,63,0.00,,,0.00,Weather View 32 v70,2013-07-04 00:30:00,
2013-07-03 16:35:00,59.9,47.2,30.23,NW,315,3.0,3.0,63,0.00,,,0.00,Weather View 32 v70,2013-07-04 00:35:00,
2013-07-03 16:45:00,60.1,47.0,30.22,West,270,3.0,3.0,62,0.00,,,0.00,Weather View 32 v70,2013-07-04 00:45:00,
2013-07-03 16:50:00,60.1,47.0,30.22,West,270,2.0,3.0,62,0.00,,,0.00,Weather View 32 v70,2013-07-04 00:50:00,
2013-07-03 16:55:00,60.6,47.5,30.22,WSW,248,2.0,3.0,62,0.00,,,0.00,Weather View 32 v70,2013-07-04 00:55:00,
2013-07-03 17:02:00,60.6,47.1,30.22,NW,315,2.0,3.0,61,0.00,,,0.00,Weather View 32 v70,2013-07-04 01:02:00,
2013-07-03 17:10:00,61.0,47.4,30.22,WSW,248,2.0,3.0,61,0.00,,,0.00,Weather View 32 v70,2013-07-04 01:10:00,
2013-07-03 17:20:00,61.3,47.7,30.22,WNW,292,2.0,3.0,61,0.00,,,0.00,Weather View 32 v70,2013-07-04 01:20:00,
2013-07-03 17:25:00,61.2,47.1,30.22,West,270,2.0,3.0,60,0.00,,,0.00,Weather View 32 v70,2013-07-04 01:25:00,
2013-07-03 17:35:00,60.8,47.2,30.22,West,270,3.0,3.0,61,0.00,,,0.00,Weather View 32 v70,2013-07-04 01:35:00,
2013-07-03 17:40:00,60.8,47.2,30.22,WNW,292,3.0,3.0,61,0.00,,,0.00,Weather View 32 v70,2013-07-04 01:40:00,
2013-07-03 17:45:00,60.6,47.1,30.22,South,180,3.0,3.0,61,0.00,,,0.00,Weather View 32 v70,2013-07-04 01:45:00,
2013-07-03 18:00:00,59.2,46.6,30.22,WSW,248,3.0,3.0,63,0.00,,,0.00,Weather View 32 v70,2013-07-04 02:00:00,
2013-07-03 18:05:00,58.5,46.3,30.22,South,180,3.0,3.0,64,0.00,,,0.00,Weather View 32 v70,2013-07-04 02:05:00,
2013-07-03 18:20:00,57.2,45.9,30.22,NW,315,3.0,3.0,66,0.00,,,0.00,Weather View 32 v70,2013-07-04 02:20:00,
2013-07-03 18:25:00,57.0,46.1,30.22,South,180,3.0,3.0,67,0.00,,,0.00,Weather View 32 v70,2013-07-04 02:25:00,
2013-07-03 18:35:00,56.3,45.9,30.22,West,270,2.0,3.0,68,0.00,,,0.00,Weather View 32 v70,2013-07-04 02:35:00,
2013-07-03 18:45:00,56.1,46.1,30.22,West,270,2.0,3.0,69,0.00,,,0.00,Weather View 32 v70,2013-07-04 02:45:00,
2013-07-03 18:50:00,55.9,45.9,30.22,WSW,248,2.0,3.0,69,0.00,,,0.00,Weather View 32 v70,2013-07-04 02:50:00,
2013-07-03 18:55:00,55.9,46.3,30.22,West,270,2.0,3.0,70,0.00,,,0.00,Weather View 32 v70,2013-07-04 02:55:00,
2013-07-03 19:03:00,55.6,45.9,30.22,South,180,2.0,3.0,70,0.00,,,0.00,Weather View 32 v70,2013-07-04 03:03:00,
2013-07-03 19:10:00,55.0,45.8,30.22,West,270,2.0,3.0,71,0.00,,,0.00,Weather View 32 v70,2013-07-04 03:10:00,
2013-07-03 19:20:00,54.9,46.0,30.22,WNW,292,2.0,3.0,72,0.00,,,0.00,Weather View 32 v70,2013-07-04 03:20:00,
2013-07-03 19:40:00,54.5,46.0,30.22,West,270,2.0,2.0,73,0.00,,,0.00,Weather View 32 v70,2013-07-04 03:40:00,
2013-07-03 19:45:00,54.5,46.0,30.22,ENE,68,2.0,2.0,73,0.00,,,0.00,Weather View 32 v70,2013-07-04 03:45:00,
2013-07-03 20:00:00,54.9,46.4,30.22,WNW,292,2.0,2.0,73,0.00,,,0.00,Weather View 32 v70,2013-07-04 04:00:00,
2013-07-03 20:04:00,54.9,46.4,30.22,WNW,292,2.0,2.0,73,0.00,,,0.00,Weather View 32 v70,2013-07-04 04:04:00,
2013-07-03 20:05:00,55.0,46.5,30.21,South,180,1.0,2.0,73,0.00,,,0.00,Weather View 32 v70,2013-07-04 04:05:00,
2013-07-03 20:15:00,54.9,46.4,30.21,West,270,1.0,2.0,73,0.00,,,0.00,Weather View 32 v70,2013-07-04 04:15:00,
2013-07-03 20:25:00,54.7,46.2,30.22,West,270,2.0,2.0,73,0.00,,,0.00,Weather View 32 v70,2013-07-04 04:25:00,
2013-07-03 20:30:00,54.5,46.0,30.22,WSW,248,1.0,2.0,73,0.00,,,0.00,Weather View 32 v70,2013-07-04 04:30:00,
2013-07-03 20:35:00,54.5,46.4,30.22,NW,315,1.0,2.0,74,0.00,,,0.00,Weather View 32 v70,2013-07-04 04:35:00,
2013-07-03 20:40:00,54.5,46.0,30.22,WNW,292,1.0,2.0,73,0.00,,,0.00,Weather View 32 v70,2013-07-04 04:40:00,
2013-07-03 20:45:00,54.0,45.8,30.21,West,270,1.0,2.0,74,0.00,,,0.00,Weather View 32 v70,2013-07-04 04:45:00,
2013-07-03 20:50:00,54.1,46.0,30.21,WNW,292,1.0,2.0,74,0.00,,,0.00,Weather View 32 v70,2013-07-04 04:50:00,
2013-07-03 20:55:00,54.1,46.4,30.21,WNW,292,1.0,2.0,75,0.00,,,0.00,Weather View 32 v70,2013-07-04 04:55:00,
2013-07-03 21:04:00,53.8,45.7,30.21,West,270,1.0,2.0,74,0.00,,,0.00,Weather View 32 v70,2013-07-04 05:04:00,
2013-07-03 21:10:00,53.8,46.0,30.21,West,270,0.0,2.0,75,0.00,,,0.00,Weather View 32 v70,2013-07-04 05:10:00,
2013-07-03 21:15:00,53.8,46.4,30.21,NW,315,0.0,2.0,76,0.00,,,0.00,Weather View 32 v70,2013-07-04 05:15:00,
2013-07-03 21:20:00,54.0,46.2,30.21,NW,315,0.0,2.0,75,0.00,,,0.00,Weather View 32 v70,2013-07-04 05:20:00,
2013-07-03 21:25:00,53.6,45.9,30.21,NW,315,0.0,2.0,75,0.00,,,0.00,Weather View 32 v70,2013-07-04 05:25:00,
2013-07-03 21:30:00,53.6,46.2,30.21,West,270,0.0,1.0,76,0.00,,,0.00,Weather View 32 v70,2013-07-04 05:30:00,
2013-07-03 21:35:00,53.8,46.4,30.21,WSW,248,0.0,1.0,76,0.00,,,0.00,Weather View 32 v70,2013-07-04 05:35:00,
2013-07-03 21:45:00,53.6,46.2,30.20,WNW,292,0.0,1.0,76,0.00,,,0.00,Weather View 32 v70,2013-07-04 05:45:00,
2013-07-03 21:50:00,53.6,46.5,30.20,NW,315,0.0,1.0,77,0.00,,,0.00,Weather View 32 v70,2013-07-04 05:50:00,
2013-07-03 22:00:00,53.1,46.0,30.20,WNW,292,0.0,1.0,77,0.00,,,0.00,Weather View 32 v70,2013-07-04 06:00:00,
2013-07-03 22:05:00,52.9,45.9,30.20,West,270,0.0,0.0,77,0.00,,,0.00,Weather View 32 v70,2013-07-04 06:05:00,
2013-07-03 22:15:00,52.9,46.2,30.20,WNW,292,0.0,0.0,78,0.00,,,0.00,Weather View 32 v70,2013-07-04 06:15:00,
2013-07-03 22:25:00,52.5,46.2,30.20,WNW,292,0.0,0.0,79,0.00,,,0.00,Weather View 32 v70,2013-07-04 06:25:00,
2013-07-03 22:30:00,52.3,46.0,30.20,WNW,292,0.0,0.0,79,0.00,,,0.00,Weather View 32 v70,2013-07-04 06:30:00,
2013-07-03 22:40:00,52.2,45.8,30.20,WNW,292,0.0,0.0,79,0.00,,,0.00,Weather View 32 v70,2013-07-04 06:40:00,
2013-07-03 22:50:00,52.0,46.0,30.20,NW,315,0.0,0.0,80,0.00,,,0.00,Weather View 32 v70,2013-07-04 06:50:00,
2013-07-03 23:00:00,51.8,45.8,30.20,NW,315,0.0,0.0,80,0.00,,,0.00,Weather View 32 v70,2013-07-04 07:00:00,
2013-07-03 23:05:00,51.6,46.3,30.20,NW,315,0.0,0.0,82,0.00,,,0.00,Weather View 32 v70,2013-07-04 07:05:00,
2013-07-03 23:15:00,51.1,46.1,30.20,SW,225,0.0,0.0,83,0.00,,,0.00,Weather View 32 v70,2013-07-04 07:15:00,
2013-07-03 23:20:00,51.3,46.3,30.20,SW,225,0.0,0.0,83,0.00,,,0.00,Weather View 32 v70,2013-07-04 07:20:00,
2013-07-03 23:25:00,50.7,45.7,30.16,SW,225,0.0,0.0,83,0.00,,,0.00,Weather View 32 v70,2013-07-04 07:25:00,
2013-07-03 23:35:00,50.7,46.1,30.16,SW,225,0.0,0.0,84,0.00,,,0.00,Weather View 32 v70,2013-07-04 07:35:00,
2013-07-03 23:45:00,50.4,45.7,30.16,SW,225,0.0,0.0,84,0.00,,,0.00,Weather View 32 v70,2013-07-04 07:45:00,
2013-07-03 23:50:00,50.4,46.0,30.16,SW,225,0.0,0.0,85,0.00,,,0.00,Weather View 32 v70,2013-07-04 07:50:00,